Jefferson, South Dakota
Current Conditions -  °F | °C
As of 5:52 PM on Friday 31 Oct 2014 (Local Time) from KSUX Reporting Station
Clear Clear  
Wind Chill: 40°   Ceiling: Unl
Heat Index: 40°   Visibility: 10mi
Dew Point: 17°   Wind: 3mph
Humidity: 40%   Direction: 150°SSE
Pressure: 30.48"   Gusts: NA
Location:  42.6°N, 96.56°W
Report Text: KSUX 312252Z AUTO 15003KT 10SM CLR 04/M08 A3048 RMK AO2 SLP334 T00441083
Loading
Personal Weather Stations






























Interactive Weather Map
Tropical Storm Tracking
New forecast layout! Learn more

10-Day Weather Forecast

Advertisements
Track Severe Weather on mobile